Portada
METAR-TAF:

METAR-TAF

Aeropuertos :

Rarotonga, Islas Cook

Aeropuerto Internacional Rarotonga

latitud: 21-12S, longitud: 159-49W, altitud: 7 m

Observación

El informe se hizo hace 41 minutos, a las 09:00 UTC
Viento 1 kt del este-sureste
Temperatura 24°C
Humedad 94%
Presión 1007 hPa
Visibilidad 10 km o más
Escasas nubes a una altura de 2200 ft

METAR: NCRG 200900Z 11001KT 9999 FEW022 24/23 Q1007

Hora: 23:41 (09:41 UTC)

Pronóstico

El informe se hizo hace 4 horas y 32 minutos, a las 05:09 UTC
Pronóstico válido del 20 a las 06 UTC al 21 a las 06 UTC
Viento 6 kt del oeste
Visibilidad 10 km o más
Nubes dispersas a una altura de 2000 ft

TAF: NCRG 200509Z 2006/2106 26006KT 9999 SCT020

Observaciones y pronósticos meteorológicos de más de 4000 aeropuertos (mensajes METAR y TAF).

Los puntos amarillos y rojos representan las estaciones disponibles.

Ponga el ratón en el punto deseado para ver el nombre de la estación.

Haga clic para ver las observaciones y los pronósticos meteorológicos.

Para cambiar el mapa : haga clic en los botones verdes con una cruz de color negro para hacer un zoom, en el botón verde con un guión para alejar o en las flechas verdes para mapas adyacentes.


METAR-TAF: